createdAt,value
2023-03-03T00:00:05.767Z,5.87
2023-03-03T00:02:56.474Z,5.86
2023-03-03T00:05:27.425Z,5.85
2023-03-03T00:07:58.116Z,5.83
2023-03-03T00:10:29.091Z,5.83
2023-03-03T00:13:00.497Z,5.84
2023-03-03T00:15:31.653Z,5.85
2023-03-03T00:18:03.612Z,5.85
2023-03-03T00:20:38.878Z,5.82
2023-03-03T00:23:21.295Z,5.80
2023-03-03T00:25:52.916Z,5.79
2023-03-03T00:28:28.133Z,5.75
2023-03-03T00:30:59.960Z,5.70
2023-03-03T00:33:33.652Z,5.66
2023-03-03T00:36:17.813Z,5.65
2023-03-03T00:38:48.801Z,5.67
2023-03-03T00:41:20.173Z,5.70
2023-03-03T00:43:51.141Z,5.70
2023-03-03T00:46:22.624Z,5.69
2023-03-03T00:48:53.544Z,5.66
2023-03-03T00:51:31.555Z,5.65
2023-03-03T00:54:02.407Z,5.63
2023-03-03T00:56:33.273Z,5.60
2023-03-03T00:59:04.161Z,5.56
2023-03-03T01:01:35.047Z,5.56
2023-03-03T01:04:06.012Z,5.58
2023-03-03T01:06:36.788Z,5.59
2023-03-03T01:09:07.767Z,5.59
2023-03-03T01:11:38.574Z,5.58
2023-03-03T01:14:09.386Z,5.50
2023-03-03T01:16:41.765Z,5.44
2023-03-03T01:19:12.643Z,5.44
2023-03-03T01:21:43.531Z,5.44
2023-03-03T01:24:14.533Z,5.45
2023-03-03T01:26:45.269Z,5.47
2023-03-03T01:29:16.095Z,5.51
2023-03-03T01:31:46.867Z,5.56
2023-03-03T01:34:17.712Z,5.58
2023-03-03T01:36:50.681Z,5.60
2023-03-03T01:39:21.542Z,5.64
2023-03-03T01:41:52.265Z,5.68
2023-03-03T01:44:23.243Z,5.71
2023-03-03T01:46:55.361Z,5.73
2023-03-03T01:49:27.014Z,5.73
2023-03-03T01:51:58.668Z,5.75
2023-03-03T01:54:31.412Z,5.76
2023-03-03T01:57:02.950Z,5.78
2023-03-03T01:59:35.091Z,5.77
2023-03-03T02:02:06.199Z,5.75
2023-03-03T02:04:37.309Z,5.77
2023-03-03T02:07:11.055Z,5.80
2023-03-03T02:09:45.367Z,5.83
2023-03-03T02:12:16.902Z,5.85
2023-03-03T02:14:47.872Z,5.85
2023-03-03T02:17:18.720Z,5.84
2023-03-03T02:19:51.897Z,5.83
2023-03-03T02:22:25.648Z,5.83
2023-03-03T02:24:57.342Z,5.86
2023-03-03T02:27:28.566Z,5.86
2023-03-03T02:29:59.868Z,5.85
2023-03-03T02:32:30.649Z,5.86
2023-03-03T02:35:01.468Z,5.86
2023-03-03T02:37:32.545Z,5.87
2023-03-03T02:40:03.182Z,5.87
2023-03-03T02:42:34.005Z,5.89
2023-03-03T02:45:04.797Z,5.90
2023-03-03T02:47:35.580Z,5.93
2023-03-03T02:50:07.415Z,5.94
2023-03-03T02:52:38.294Z,5.91
2023-03-03T02:55:10.561Z,5.86
2023-03-03T02:57:41.375Z,5.82
2023-03-03T03:00:13.054Z,5.80
2023-03-03T03:02:43.812Z,5.79
2023-03-03T03:05:14.730Z,5.79
2023-03-03T03:07:45.666Z,5.79
2023-03-03T03:10:16.579Z,5.79
2023-03-03T03:12:47.397Z,5.78
2023-03-03T03:15:18.427Z,5.77
2023-03-03T03:17:49.083Z,5.76
2023-03-03T03:20:20.083Z,5.76
2023-03-03T03:22:50.951Z,5.77
2023-03-03T03:25:21.838Z,5.75
2023-03-03T03:27:52.575Z,5.74
2023-03-03T03:30:23.350Z,5.74
2023-03-03T03:32:54.201Z,5.74
2023-03-03T03:35:25.052Z,5.76
2023-03-03T03:37:55.914Z,5.76
2023-03-03T03:40:26.963Z,5.78
2023-03-03T03:42:57.842Z,5.80
2023-03-03T03:45:28.564Z,5.82
2023-03-03T03:47:59.348Z,5.86
2023-03-03T03:50:31.163Z,5.89
2023-03-03T03:53:01.951Z,5.93
2023-03-03T03:55:32.904Z,5.96
2023-03-03T03:58:03.932Z,5.99
2023-03-03T04:00:34.717Z,6.03
2023-03-03T04:03:05.598Z,6.06
2023-03-03T04:05:36.505Z,6.09
2023-03-03T04:08:07.635Z,6.12
2023-03-03T04:10:38.578Z,6.15
2023-03-03T04:13:09.332Z,6.17
2023-03-03T04:15:40.285Z,6.20
2023-03-03T04:18:11.268Z,6.24
2023-03-03T04:20:42.726Z,6.26
2023-03-03T04:23:14.922Z,6.28
2023-03-03T04:25:45.727Z,6.28
2023-03-03T04:28:16.670Z,6.29
2023-03-03T04:30:47.554Z,6.30
2023-03-03T04:33:18.329Z,6.30
2023-03-03T04:35:49.216Z,6.30
2023-03-03T04:38:20.228Z,6.30
2023-03-03T04:40:59.561Z,6.30
2023-03-03T04:43:31.236Z,6.31
2023-03-03T04:46:08.129Z,6.31
2023-03-03T04:48:39.655Z,6.30
2023-03-03T04:51:10.516Z,6.30
2023-03-03T04:53:41.410Z,6.33
2023-03-03T04:56:12.290Z,6.33
2023-03-03T04:58:43.001Z,6.34
2023-03-03T05:01:14.010Z,6.36
2023-03-03T05:06:46.771Z,6.38
2023-03-03T05:09:17.511Z,6.39
2023-03-03T05:11:48.265Z,6.39
2023-03-03T05:14:18.935Z,6.40
2023-03-03T05:16:49.676Z,6.42
2023-03-03T05:19:20.564Z,6.43
2023-03-03T05:21:51.403Z,6.44
2023-03-03T05:24:22.324Z,6.46
2023-03-03T05:26:52.987Z,6.46
2023-03-03T05:29:23.929Z,6.46
2023-03-03T05:31:54.871Z,6.46
2023-03-03T05:34:25.887Z,6.49
2023-03-03T05:36:56.701Z,6.51
2023-03-03T05:39:27.493Z,6.50
2023-03-03T05:41:58.322Z,6.47
2023-03-03T05:44:29.175Z,6.48
2023-03-03T05:47:00.291Z,6.49
2023-03-03T05:49:31.141Z,6.51
2023-03-03T05:52:01.916Z,6.52
2023-03-03T05:54:32.833Z,6.53
2023-03-03T05:57:03.880Z,6.52
2023-03-03T05:59:34.815Z,6.55
2023-03-03T06:02:05.826Z,6.57
2023-03-03T06:04:36.762Z,6.60
2023-03-03T06:07:13.818Z,6.60
2023-03-03T06:09:44.669Z,6.59
2023-03-03T06:12:15.612Z,6.58
2023-03-03T06:14:46.429Z,6.57
2023-03-03T06:17:17.334Z,6.56
2023-03-03T06:19:48.619Z,6.58
2023-03-03T06:22:19.488Z,6.59
2023-03-03T06:24:50.272Z,6.60
2023-03-03T06:27:21.329Z,6.62
2023-03-03T06:29:52.250Z,6.65
2023-03-03T06:32:23.120Z,6.66
2023-03-03T06:34:53.901Z,6.67
2023-03-03T06:37:24.666Z,6.66
2023-03-03T06:39:55.479Z,6.70
2023-03-03T06:42:26.474Z,6.74
2023-03-03T06:44:57.257Z,6.78
2023-03-03T06:47:28.144Z,6.80
2023-03-03T06:49:59.019Z,6.82
2023-03-03T06:52:29.736Z,6.82
2023-03-03T06:55:00.950Z,6.82
2023-03-03T06:57:32.306Z,6.81
2023-03-03T07:00:07.744Z,6.81
2023-03-03T07:02:38.522Z,6.83
2023-03-03T07:05:11.387Z,6.84
2023-03-03T07:07:44.616Z,6.85
2023-03-03T07:10:18.118Z,6.86
2023-03-03T07:12:48.935Z,6.85
2023-03-03T07:15:22.218Z,6.85
2023-03-03T07:17:54.514Z,6.85
2023-03-03T07:20:26.460Z,6.83
2023-03-03T07:22:57.283Z,6.83
2023-03-03T07:25:30.876Z,6.85
2023-03-03T07:28:03.354Z,6.86
2023-03-03T07:30:34.186Z,6.89
2023-03-03T07:33:06.505Z,6.92
2023-03-03T07:35:40.746Z,6.95
2023-03-03T07:38:20.828Z,6.99
2023-03-03T07:40:53.081Z,7.05
2023-03-03T07:43:35.375Z,7.11
2023-03-03T07:46:16.042Z,7.15
2023-03-03T07:48:46.986Z,7.21
2023-03-03T07:51:22.598Z,7.25
2023-03-03T07:53:53.697Z,7.30
2023-03-03T07:56:36.638Z,7.34
2023-03-03T07:59:13.474Z,7.39
2023-03-03T08:01:45.129Z,7.39
2023-03-03T08:04:21.045Z,7.38
2023-03-03T08:06:53.144Z,7.38
2023-03-03T08:09:44.328Z,7.42
2023-03-03T08:12:29.335Z,7.41
2023-03-03T08:15:03.375Z,7.47
2023-03-03T08:17:38.068Z,7.55
2023-03-03T08:20:13.070Z,7.62
2023-03-03T08:22:43.905Z,7.64
2023-03-03T08:25:14.820Z,7.65
2023-03-03T08:27:45.587Z,7.67
2023-03-03T08:30:16.846Z,7.70
2023-03-03T08:32:47.746Z,7.72
2023-03-03T08:35:18.821Z,7.76
2023-03-03T08:37:49.758Z,7.80
2023-03-03T08:40:20.641Z,7.86
2023-03-03T08:42:51.620Z,7.91
2023-03-03T08:45:22.447Z,7.95
2023-03-03T08:47:53.244Z,8.00
2023-03-03T08:50:24.198Z,8.04
2023-03-03T08:52:55.005Z,8.09
2023-03-03T08:55:25.828Z,8.11
2023-03-03T08:57:56.636Z,8.15
2023-03-03T09:00:27.786Z,8.17
2023-03-03T09:02:58.962Z,8.17
2023-03-03T09:05:29.817Z,8.18
2023-03-03T09:08:00.858Z,8.20
2023-03-03T09:10:32.271Z,8.18
2023-03-03T09:13:09.438Z,8.22
2023-03-03T09:15:40.703Z,8.27
2023-03-03T09:18:14.961Z,8.32
2023-03-03T09:20:46.273Z,8.35
2023-03-03T09:23:31.427Z,8.40
2023-03-03T09:26:07.731Z,8.44
2023-03-03T09:28:38.997Z,8.48
2023-03-03T09:31:24.255Z,8.51
2023-03-03T09:33:58.184Z,8.55
2023-03-03T09:36:29.673Z,8.57
2023-03-03T09:39:00.481Z,8.60
2023-03-03T09:41:36.095Z,8.65
2023-03-03T09:44:29.888Z,8.70
2023-03-03T09:47:04.645Z,8.78
2023-03-03T09:49:36.359Z,8.84
2023-03-03T09:52:13.127Z,8.90
2023-03-03T09:54:48.902Z,8.92
2023-03-03T09:57:21.278Z,8.93
2023-03-03T10:00:01.473Z,8.84
2023-03-03T10:02:36.179Z,8.79
2023-03-03T10:05:15.821Z,8.86
2023-03-03T10:07:49.526Z,8.98
2023-03-03T10:10:23.117Z,9.05
2023-03-03T10:12:57.045Z,9.16
2023-03-03T10:15:35.600Z,9.29
2023-03-03T10:18:09.966Z,9.41
2023-03-03T10:20:50.536Z,9.50
2023-03-03T10:23:25.920Z,9.66
2023-03-03T10:25:58.140Z,9.81
2023-03-03T10:28:42.335Z,9.90
2023-03-03T10:31:18.602Z,9.94
2023-03-03T10:33:51.528Z,9.94
2023-03-03T10:36:33.721Z,9.93
2023-03-03T10:39:07.239Z,9.95
2023-03-03T10:41:42.227Z,10.03
2023-03-03T10:44:28.524Z,10.16
2023-03-03T10:47:12.712Z,10.25
2023-03-03T10:49:47.134Z,10.30
2023-03-03T10:52:21.423Z,10.33
2023-03-03T10:55:05.854Z,10.41
2023-03-03T10:57:38.000Z,10.43
2023-03-03T11:00:21.095Z,10.55
2023-03-03T11:02:58.707Z,10.68
2023-03-03T11:05:33.199Z,10.65
2023-03-03T11:08:05.254Z,10.60
2023-03-03T11:10:46.758Z,10.58
2023-03-03T11:13:19.166Z,10.54
2023-03-03T11:15:52.729Z,10.57
2023-03-03T11:18:25.875Z,10.47
2023-03-03T11:20:59.926Z,10.41
2023-03-03T11:23:44.026Z,10.42
2023-03-03T11:26:16.361Z,10.39
2023-03-03T11:28:50.737Z,10.33
2023-03-03T11:31:22.826Z,10.30
2023-03-03T11:33:56.999Z,10.36
2023-03-03T11:36:29.178Z,10.50
2023-03-03T11:39:00.498Z,10.59
2023-03-03T11:41:36.200Z,10.52
2023-03-03T11:44:12.543Z,10.44
2023-03-03T11:46:44.335Z,10.42
2023-03-03T11:49:17.347Z,10.43
2023-03-03T11:51:51.812Z,10.51
2023-03-03T11:54:24.239Z,10.53
2023-03-03T11:56:56.532Z,10.36
2023-03-03T11:59:33.332Z,10.19
2023-03-03T12:02:05.271Z,10.14
2023-03-03T12:04:37.457Z,10.08
2023-03-03T12:07:19.117Z,10.02
2023-03-03T12:09:53.183Z,9.96
2023-03-03T12:12:25.296Z,9.93
2023-03-03T12:15:01.202Z,9.92
2023-03-03T12:17:40.636Z,9.97
2023-03-03T12:20:13.933Z,9.98
2023-03-03T12:22:48.642Z,9.98
2023-03-03T12:25:22.976Z,9.90
2023-03-03T12:27:56.405Z,9.77
2023-03-03T12:30:34.182Z,9.75
2023-03-03T12:33:20.732Z,9.71
2023-03-03T12:35:54.598Z,9.69
2023-03-03T12:38:27.220Z,9.72
2023-03-03T12:40:59.390Z,9.69
2023-03-03T12:43:34.742Z,9.65
2023-03-03T12:46:07.313Z,9.64
2023-03-03T12:48:40.394Z,9.68
2023-03-03T12:51:14.565Z,9.75
2023-03-03T12:53:49.495Z,9.79
2023-03-03T12:56:21.987Z,9.80
2023-03-03T12:58:55.874Z,9.78
2023-03-03T13:01:31.866Z,9.74
2023-03-03T13:04:06.403Z,9.72
2023-03-03T13:06:39.042Z,9.74
2023-03-03T13:09:21.540Z,9.81
2023-03-03T13:11:59.896Z,9.73
2023-03-03T13:14:32.937Z,9.66
2023-03-03T13:17:05.370Z,9.68
2023-03-03T13:19:38.530Z,9.69
2023-03-03T13:22:09.691Z,9.60
2023-03-03T13:24:42.989Z,9.58
2023-03-03T13:27:16.165Z,9.60
2023-03-03T13:29:50.575Z,9.68
2023-03-03T13:32:22.741Z,9.65
2023-03-03T13:34:54.925Z,9.64
2023-03-03T13:37:26.172Z,9.54
2023-03-03T13:39:59.409Z,9.44
2023-03-03T13:42:32.430Z,9.36
2023-03-03T13:45:03.301Z,9.34
2023-03-03T13:47:35.531Z,9.39
2023-03-03T13:50:10.452Z,9.42
2023-03-03T13:52:42.436Z,9.41
2023-03-03T13:55:15.446Z,9.38
2023-03-03T13:58:00.156Z,9.32
2023-03-03T14:00:38.461Z,9.25
2023-03-03T14:03:14.892Z,9.22
2023-03-03T14:05:46.969Z,9.15
2023-03-03T14:08:21.212Z,9.19
2023-03-03T14:10:54.925Z,9.22
2023-03-03T14:13:27.627Z,9.22
2023-03-03T14:16:00.284Z,9.28
2023-03-03T14:18:32.158Z,9.29
2023-03-03T14:21:05.318Z,9.26
2023-03-03T14:23:40.970Z,9.23
2023-03-03T14:26:12.484Z,9.26
2023-03-03T14:28:45.362Z,9.28
2023-03-03T14:31:24.224Z,9.22
2023-03-03T14:34:01.051Z,9.20
2023-03-03T14:36:32.888Z,9.15
2023-03-03T14:39:03.777Z,9.14
2023-03-03T14:41:40.492Z,9.09
2023-03-03T14:44:31.985Z,9.04
2023-03-03T14:47:19.163Z,9.00
2023-03-03T14:49:50.905Z,9.01
2023-03-03T14:52:23.837Z,9.02
2023-03-03T14:54:55.536Z,9.00
2023-03-03T14:57:41.855Z,9.03
2023-03-03T15:00:29.339Z,9.04
2023-03-03T15:03:06.819Z,9.00
2023-03-03T15:05:38.011Z,8.99
2023-03-03T15:08:12.429Z,8.97
2023-03-03T15:10:44.279Z,8.89
2023-03-03T15:13:33.252Z,8.86
2023-03-03T15:16:05.585Z,8.78
2023-03-03T15:18:36.634Z,8.73
2023-03-03T15:21:07.981Z,8.69
2023-03-03T15:23:43.009Z,8.70
2023-03-03T15:26:14.779Z,8.71
2023-03-03T15:28:52.270Z,8.68
2023-03-03T15:31:24.383Z,8.63
2023-03-03T15:34:04.055Z,8.54
2023-03-03T15:36:38.042Z,8.47
2023-03-03T15:39:12.739Z,8.38
2023-03-03T15:41:45.782Z,8.32
2023-03-03T15:51:17.041Z,8.24
2023-03-03T15:54:01.022Z,8.19
2023-03-03T15:56:33.447Z,8.17
2023-03-03T15:59:23.885Z,8.17
2023-03-03T16:01:57.665Z,8.17
2023-03-03T16:04:30.019Z,8.19
2023-03-03T16:07:01.994Z,8.19
2023-03-03T16:09:39.291Z,8.13
2023-03-03T16:12:12.329Z,8.09
2023-03-03T16:14:48.220Z,8.05
2023-03-03T16:17:22.805Z,8.00
2023-03-03T16:19:57.200Z,7.99
2023-03-03T16:22:40.812Z,7.99
2023-03-03T16:25:25.461Z,7.96
2023-03-03T16:27:57.727Z,7.97
2023-03-03T16:30:30.668Z,7.97
2023-03-03T16:33:07.933Z,7.93
2023-03-03T16:35:40.097Z,7.85
2023-03-03T16:38:13.032Z,7.77
2023-03-03T16:40:47.306Z,7.74
2023-03-03T16:43:20.819Z,7.71
2023-03-03T16:45:51.774Z,7.66
2023-03-03T16:48:24.443Z,7.64
2023-03-03T16:51:00.858Z,7.66
2023-03-03T16:53:44.293Z,7.68
2023-03-03T16:56:18.913Z,7.65
2023-03-03T16:58:54.410Z,7.62
2023-03-03T17:01:28.452Z,7.61
2023-03-03T17:04:04.947Z,7.57
2023-03-03T17:06:42.768Z,7.56
2023-03-03T17:09:33.674Z,7.59
2023-03-03T17:12:07.908Z,7.58
2023-03-03T17:14:54.334Z,7.54
2023-03-03T17:17:30.844Z,7.49
2023-03-03T17:20:09.232Z,7.47
2023-03-03T17:22:46.601Z,7.51
2023-03-03T17:25:19.689Z,7.54
2023-03-03T17:27:55.273Z,7.54
2023-03-03T17:30:27.239Z,7.54
2023-03-03T17:33:12.617Z,7.56
2023-03-03T17:35:47.659Z,7.59
2023-03-03T17:38:20.210Z,7.60
2023-03-03T17:40:53.187Z,7.61
2023-03-03T17:43:24.998Z,7.59
2023-03-03T17:45:56.579Z,7.55
2023-03-03T17:48:46.063Z,7.51
2023-03-03T17:51:26.285Z,7.44
2023-03-03T17:54:09.792Z,7.44
2023-03-03T17:56:51.187Z,7.39
2023-03-03T17:59:25.294Z,7.37
2023-03-03T18:02:05.517Z,7.36
2023-03-03T18:04:53.384Z,7.28
2023-03-03T18:07:36.576Z,7.19
2023-03-03T18:10:11.465Z,7.16
2023-03-03T18:12:44.013Z,7.16
2023-03-03T18:15:28.208Z,7.10
2023-03-03T18:18:11.383Z,7.08
2023-03-03T18:20:45.505Z,7.10
2023-03-03T18:23:34.225Z,7.10
2023-03-03T18:26:05.219Z,7.07
2023-03-03T18:28:45.560Z,7.04
2023-03-03T18:31:24.563Z,7.05
2023-03-03T18:34:10.787Z,7.06
2023-03-03T18:36:53.414Z,7.06
2023-03-03T18:42:38.393Z,7.09
2023-03-03T18:45:28.432Z,7.05
2023-03-03T18:48:10.633Z,7.02
2023-03-03T18:50:42.337Z,7.00
2023-03-03T18:53:20.468Z,7.02
2023-03-03T18:55:52.050Z,7.01
2023-03-03T18:58:36.413Z,6.99
2023-03-03T19:01:13.718Z,6.97
2023-03-03T19:04:04.736Z,6.94
2023-03-03T19:06:55.421Z,6.93
2023-03-03T19:09:39.594Z,6.95
2023-03-03T19:12:14.079Z,6.92
2023-03-03T19:14:46.158Z,6.90
2023-03-03T19:17:30.349Z,6.88
2023-03-03T19:20:02.686Z,6.89
2023-03-03T19:22:33.428Z,6.94
2023-03-03T19:25:17.447Z,6.95
2023-03-03T19:27:49.320Z,6.88
2023-03-03T19:30:23.805Z,6.89
2023-03-03T19:33:17.107Z,6.89
2023-03-03T19:35:59.478Z,6.85
2023-03-03T19:38:32.594Z,6.82
2023-03-03T19:41:09.133Z,6.80
2023-03-03T19:43:42.000Z,6.76
2023-03-03T19:46:18.470Z,6.76
2023-03-03T19:48:50.096Z,6.79
2023-03-03T19:51:24.068Z,6.78
2023-03-03T19:53:55.314Z,6.78
2023-03-03T19:56:29.742Z,6.76
2023-03-03T19:59:16.829Z,6.78
2023-03-03T20:01:49.924Z,6.80
2023-03-03T20:04:29.852Z,6.76
2023-03-03T20:07:02.739Z,6.74
2023-03-03T20:09:36.785Z,6.72
2023-03-03T20:12:24.219Z,6.73
2023-03-03T20:14:57.978Z,6.75
2023-03-03T20:17:41.190Z,6.74
2023-03-03T20:20:29.025Z,6.73
2023-03-03T20:23:03.674Z,6.63
2023-03-03T20:25:37.798Z,6.60
2023-03-03T20:28:11.995Z,6.57
2023-03-03T20:30:51.682Z,6.56
2023-03-03T20:33:26.818Z,6.49
2023-03-03T20:36:00.636Z,6.46
2023-03-03T20:38:33.671Z,6.42
2023-03-03T20:41:07.005Z,6.42
2023-03-03T20:43:43.470Z,6.37
2023-03-03T20:46:17.138Z,6.30
2023-03-03T20:48:51.899Z,6.30
2023-03-03T20:51:25.349Z,6.35
2023-03-03T20:53:57.201Z,6.38
2023-03-03T20:56:29.972Z,6.39
2023-03-03T20:59:03.837Z,6.38
2023-03-03T21:01:37.007Z,6.37
2023-03-03T21:04:21.183Z,6.37
2023-03-03T21:06:52.114Z,6.38
2023-03-03T21:09:30.118Z,6.37
2023-03-03T21:12:01.272Z,6.36
2023-03-03T21:14:33.261Z,6.35
2023-03-03T21:17:12.950Z,6.36
2023-03-03T21:19:43.577Z,6.33
2023-03-03T21:22:14.289Z,6.22
2023-03-03T21:24:52.360Z,6.18
2023-03-03T21:27:27.803Z,6.19
2023-03-03T21:30:06.168Z,6.21
2023-03-03T21:32:38.140Z,6.23
2023-03-03T21:35:10.542Z,6.27
2023-03-03T21:37:45.466Z,6.28
2023-03-03T21:40:16.908Z,6.27
2023-03-03T21:42:47.904Z,6.22
2023-03-03T21:45:20.682Z,6.20
2023-03-03T21:47:51.604Z,6.16
2023-03-03T21:50:22.733Z,6.11
2023-03-03T21:52:53.450Z,6.04
2023-03-03T21:55:26.558Z,5.98
2023-03-03T21:57:57.909Z,5.92
2023-03-03T22:00:28.790Z,5.89
2023-03-03T22:03:00.922Z,5.86
2023-03-03T22:05:31.755Z,5.84
2023-03-03T22:08:02.496Z,5.83
2023-03-03T22:10:33.162Z,5.78
2023-03-03T22:13:03.880Z,5.72
2023-03-03T22:15:34.718Z,5.68
2023-03-03T22:18:05.762Z,5.68
2023-03-03T22:26:47.910Z,5.72
2023-03-03T22:29:23.039Z,5.71
2023-03-03T22:31:54.202Z,5.72
2023-03-03T22:34:25.346Z,5.75
2023-03-03T22:36:56.251Z,5.77
2023-03-03T22:39:27.025Z,5.76
2023-03-03T22:41:57.917Z,5.71
2023-03-03T22:44:28.636Z,5.72
2023-03-03T22:46:59.347Z,5.78
2023-03-03T22:49:30.049Z,5.79
2023-03-03T22:52:02.708Z,5.82
2023-03-03T22:54:33.770Z,5.83
2023-03-03T22:57:04.713Z,5.85
2023-03-03T22:59:35.387Z,5.89
2023-03-03T23:02:06.230Z,5.85
2023-03-03T23:04:37.048Z,5.84
2023-03-03T23:07:08.137Z,5.87
2023-03-03T23:09:39.379Z,5.93
2023-03-03T23:12:10.282Z,5.93
2023-03-03T23:14:40.915Z,5.94
2023-03-03T23:17:12.371Z,5.93
2023-03-03T23:19:43.695Z,5.94
2023-03-03T23:22:14.716Z,5.94
2023-03-03T23:24:45.920Z,5.94
2023-03-03T23:27:16.560Z,5.94
2023-03-03T23:29:47.383Z,5.95
2023-03-03T23:32:18.116Z,5.92
2023-03-03T23:34:48.826Z,5.90
2023-03-03T23:37:20.010Z,5.92
2023-03-03T23:39:51.368Z,5.99
2023-03-03T23:42:23.089Z,6.04
2023-03-03T23:44:54.580Z,6.04
2023-03-03T23:47:25.828Z,6.04
2023-03-03T23:49:57.026Z,6.09
2023-03-03T23:52:28.036Z,6.12
2023-03-03T23:54:59.593Z,6.15
2023-03-03T23:57:31.051Z,6.15
